Time;durP1;ratioP1;P1;durP2;ratioP2;P2;SDS_P1;SDS_P2;PMS_P1;PMS_P2;Temp;Humidity;BMP_temperature;BMP_pressure;BME280_temperature;BME280_humidity;BME280_pressure;Samples;Min_cycle;Max_cycle;Signal;HPM_P1;HPM_P2
2024/01/10 00:01:31;;;;;;;28.20;22.13;;;-2.10;56.70;;;;;;5101623;28;20450;-79
2024/01/10 00:03:57;;;;;;;29.02;21.92;;;-2.20;57.60;;;;;;5091871;28;20439;-79
2024/01/10 00:06:23;;;;;;;32.47;22.93;;;-2.20;58.20;;;;;;5100526;28;20402;-79
2024/01/10 00:08:49;;;;;;;30.53;23.47;;;-2.20;58.00;;;;;;5102996;28;20497;-79
2024/01/10 00:11:15;;;;;;;31.05;22.92;;;-2.20;58.70;;;;;;5089689;28;20477;-80
2024/01/10 00:13:40;;;;;;;30.27;22.33;;;-2.20;59.00;;;;;;5106047;28;20476;-79
2024/01/10 00:16:06;;;;;;;31.20;22.43;;;-2.20;59.20;;;;;;5091871;28;20407;-79
2024/01/10 00:18:32;;;;;;;31.30;22.95;;;-2.20;59.30;;;;;;5107324;28;20418;-79
2024/01/10 00:20:58;;;;;;;30.13;22.60;;;-2.20;59.30;;;;;;5119997;28;20396;-80
2024/01/10 00:23:23;;;;;;;30.75;22.63;;;-2.20;59.60;;;;;;5108719;28;20481;-80
2024/01/10 00:25:49;;;;;;;30.58;22.77;;;-2.20;59.60;;;;;;5109201;28;20553;-79
2024/01/10 00:28:18;;;;;;;32.45;22.52;;;-2.20;59.60;;;;;;5092650;28;20941;-80
2024/01/10 00:30:45;;;;;;;31.50;22.77;;;-2.20;60.20;;;;;;5081697;28;20404;-79
2024/01/10 00:33:11;;;;;;;31.33;23.27;;;-2.30;60.10;;;;;;5089447;28;20417;-79
2024/01/10 00:35:37;;;;;;;31.00;23.23;;;-2.30;59.80;;;;;;5107692;28;21019;-80
2024/01/10 00:38:02;;;;;;;33.03;23.80;;;-2.30;60.10;;;;;;5089220;28;20398;-80
2024/01/10 00:40:28;;;;;;;32.38;24.10;;;-2.30;60.20;;;;;;5108262;28;20396;-79
2024/01/10 00:42:54;;;;;;;31.25;23.35;;;-2.30;60.00;;;;;;5106055;28;20737;-80
2024/01/10 00:45:20;;;;;;;30.35;22.48;;;-2.30;60.10;;;;;;5108144;28;20401;-80
2024/01/10 00:47:46;;;;;;;29.98;22.88;;;-2.30;60.30;;;;;;5100938;28;20435;-79
2024/01/10 00:50:11;;;;;;;32.25;22.10;;;-2.30;60.60;;;;;;5088677;28;20414;-79
2024/01/10 00:52:37;;;;;;;31.23;21.97;;;-2.30;60.50;;;;;;5091013;28;20401;-80
2024/01/10 00:55:03;;;;;;;31.30;21.60;;;-2.30;60.90;;;;;;5080321;28;20811;-79
2024/01/10 00:57:28;;;;;;;29.88;21.48;;;-2.30;60.90;;;;;;5088070;28;20398;-79
2024/01/10 00:59:54;;;;;;;28.98;21.92;;;-2.30;60.60;;;;;;5106305;28;20463;-79
2024/01/10 01:02:19;;;;;;;30.70;21.63;;;-2.30;60.50;;;;;;5088582;28;20422;-79
2024/01/10 01:04:45;;;;;;;32.90;21.70;;;-2.30;60.30;;;;;;5105804;28;20418;-79
2024/01/10 01:07:11;;;;;;;27.48;21.10;;;-2.40;60.40;;;;;;5088507;28;20470;-79
2024/01/10 01:09:36;;;;;;;30.47;22.40;;;-2.30;60.50;;;;;;5089659;28;20408;-79
2024/01/10 01:12:02;;;;;;;29.80;22.23;;;-2.40;60.60;;;;;;5090945;28;20923;-79
2024/01/10 01:14:28;;;;;;;30.23;22.42;;;-2.40;60.80;;;;;;5089663;28;20437;-79
2024/01/10 01:16:53;;;;;;;30.15;23.23;;;-2.40;60.70;;;;;;5090531;28;20406;-79
2024/01/10 01:19:19;;;;;;;32.40;23.50;;;-2.40;61.20;;;;;;5089560;28;20463;-79
2024/01/10 01:21:44;;;;;;;35.20;24.90;;;-2.40;61.60;;;;;;5073367;28;20406;-79
2024/01/10 01:24:11;;;;;;;33.33;24.10;;;-2.40;61.70;;;;;;5089307;28;21288;-80
2024/01/10 01:26:36;;;;;;;35.00;25.25;;;-2.40;62.20;;;;;;5089504;28;20417;-80
2024/01/10 01:29:02;;;;;;;37.85;26.90;;;-2.40;63.20;;;;;;5071557;28;20405;-80
2024/01/10 01:31:27;;;;;;;33.03;24.95;;;-2.40;63.60;;;;;;5071927;28;20955;-79
2024/01/10 01:33:53;;;;;;;34.50;25.80;;;-2.50;64.00;;;;;;5097722;28;21243;-79
2024/01/10 01:36:19;;;;;;;36.40;26.57;;;-2.50;64.70;;;;;;5106804;28;21509;-79
2024/01/10 01:38:44;;;;;;;33.38;25.65;;;-2.40;65.70;;;;;;5107100;28;20492;-79
2024/01/10 01:41:10;;;;;;;33.55;24.85;;;-2.40;66.30;;;;;;5106424;28;20426;-79
2024/01/10 01:43:36;;;;;;;35.83;25.73;;;-2.50;66.30;;;;;;5108359;28;21182;-79
2024/01/10 01:46:03;;;;;;;35.70;25.63;;;-2.50;67.20;;;;;;5088408;28;20397;-79
2024/01/10 01:48:29;;;;;;;35.63;24.90;;;-2.50;68.60;;;;;;5106248;28;20767;-79
2024/01/10 01:51:02;;;;;;;35.03;25.48;;;-2.40;69.00;;;;;;5090930;28;20430;-79
2024/01/10 01:53:28;;;;;;;34.70;25.52;;;-2.50;69.30;;;;;;5089233;28;20500;-79
2024/01/10 01:55:55;;;;;;;35.42;25.42;;;-2.50;69.80;;;;;;5089379;28;20402;-80
2024/01/10 01:58:22;;;;;;;35.28;26.25;;;-2.50;69.70;;;;;;5088953;28;20441;-80
2024/01/10 02:00:48;;;;;;;37.03;26.33;;;-2.50;69.30;;;;;;5071948;28;20406;-79
2024/01/10 02:03:14;;;;;;;36.75;26.75;;;-2.40;69.90;;;;;;5089559;28;20452;-79
2024/01/10 02:05:40;;;;;;;36.13;26.70;;;-2.50;70.70;;;;;;5087269;28;20418;-79
2024/01/10 02:08:06;;;;;;;36.83;26.60;;;-2.50;71.00;;;;;;5104141;28;20426;-79
2024/01/10 02:10:32;;;;;;;36.43;26.53;;;-2.50;72.00;;;;;;5087502;28;20452;-79
2024/01/10 02:12:57;;;;;;;37.60;27.05;;;-2.50;72.10;;;;;;5104285;28;20410;-79
2024/01/10 02:15:24;;;;;;;34.70;25.73;;;-2.50;71.90;;;;;;5103134;28;20402;-80
2024/01/10 02:17:49;;;;;;;39.50;27.17;;;-2.50;71.60;;;;;;5088822;28;21079;-79
2024/01/10 02:20:20;;;;;;;39.47;27.20;;;-2.50;72.50;;;;;;5087720;28;20398;-79
2024/01/10 02:22:46;;;;;;;36.90;26.88;;;-2.50;72.10;;;;;;5098508;28;20408;-79
2024/01/10 02:25:13;;;;;;;36.80;26.88;;;-2.50;72.10;;;;;;5075883;28;20414;-80
2024/01/10 02:27:40;;;;;;;37.08;26.35;;;-2.50;72.10;;;;;;5077766;28;21156;-79
2024/01/10 02:30:07;;;;;;;36.03;25.90;;;-2.50;71.90;;;;;;5068709;28;20417;-79
2024/01/10 02:32:33;;;;;;;35.47;25.90;;;-2.50;72.00;;;;;;5069848;28;20405;-79
2024/01/10 02:34:59;;;;;;;36.50;26.37;;;-2.50;72.30;;;;;;5102928;28;20410;-80
2024/01/10 02:37:25;;;;;;;36.80;25.03;;;-2.60;71.70;;;;;;5069578;28;20402;-79
2024/01/10 02:39:51;;;;;;;35.97;26.30;;;-2.60;71.50;;;;;;5086396;28;20399;-79
2024/01/10 02:42:17;;;;;;;36.83;26.95;;;-2.60;71.90;;;;;;5086853;28;20485;-79
2024/01/10 02:44:43;;;;;;;36.40;25.63;;;-2.60;72.10;;;;;;5088551;28;20979;-79
2024/01/10 02:47:10;;;;;;;38.92;27.20;;;-2.60;72.30;;;;;;5069410;28;20433;-80
2024/01/10 02:49:35;;;;;;;36.08;25.95;;;-2.60;72.30;;;;;;5072951;28;20429;-79
2024/01/10 02:52:01;;;;;;;35.57;25.93;;;-2.60;72.60;;;;;;5087349;28;20445;-79
2024/01/10 02:54:27;;;;;;;36.97;26.03;;;-2.60;72.40;;;;;;5088037;28;20400;-80
2024/01/10 02:56:52;;;;;;;35.33;25.67;;;-2.60;72.90;;;;;;5073940;28;20946;-79
2024/01/10 02:59:18;;;;;;;36.28;25.83;;;-2.60;73.10;;;;;;5080655;28;20418;-79
2024/01/10 03:01:44;;;;;;;32.72;23.60;;;-2.60;73.40;;;;;;5092087;28;20412;-79
2024/01/10 03:04:10;;;;;;;34.60;24.83;;;-2.60;73.40;;;;;;5102742;28;20506;-80
2024/01/10 03:06:35;;;;;;;34.67;24.17;;;-2.60;73.70;;;;;;5092957;28;20965;-79
2024/01/10 03:09:01;;;;;;;35.27;24.87;;;-2.60;73.60;;;;;;5084867;28;20449;-79
2024/01/10 03:11:27;;;;;;;34.03;23.55;;;-2.50;74.00;;;;;;5085969;28;20473;-79
2024/01/10 03:14:02;;;;;;;32.28;23.40;;;-2.50;73.90;;;;;;5081111;28;20402;-79
2024/01/10 03:16:27;;;;;;;32.83;23.35;;;-2.60;73.60;;;;;;5101951;28;20401;-79
2024/01/10 03:18:53;;;;;;;33.80;23.95;;;-2.60;73.70;;;;;;5104385;28;20404;-79
2024/01/10 03:21:24;;;;;;;33.30;24.23;;;-2.60;73.40;;;;;;5085875;28;20902;-79
2024/01/10 03:24:01;;;;;;;34.38;24.98;;;-2.60;72.70;;;;;;5104118;28;20408;-79
2024/01/10 03:26:27;;;;;;;35.08;24.80;;;-2.50;72.60;;;;;;5084392;28;20432;-79
2024/01/10 03:28:53;;;;;;;34.72;24.70;;;-2.60;72.10;;;;;;5092662;28;20823;-79
2024/01/10 03:31:19;;;;;;;34.72;24.58;;;-2.60;73.40;;;;;;5091118;28;20856;-79
2024/01/10 03:33:45;;;;;;;34.85;23.70;;;-2.60;74.40;;;;;;5065558;28;20906;-79
2024/01/10 03:36:16;;;;;;;33.88;25.00;;;-2.60;74.50;;;;;;5102545;28;20407;-79
2024/01/10 03:38:42;;;;;;;33.92;23.83;;;-2.60;74.10;;;;;;5083675;28;20402;-79
2024/01/10 03:41:13;;;;;;;31.13;23.30;;;-2.60;74.30;;;;;;5101767;28;20436;-79
2024/01/10 03:43:38;;;;;;;34.03;23.52;;;-2.60;73.90;;;;;;5104591;28;20412;-79
2024/01/10 03:46:05;;;;;;;32.60;22.95;;;-2.60;73.60;;;;;;5103530;28;21193;-79
2024/01/10 03:48:31;;;;;;;32.60;23.33;;;-2.60;72.90;;;;;;5104718;28;20420;-79
2024/01/10 03:50:57;;;;;;;31.13;22.37;;;-2.60;73.50;;;;;;5085245;28;20491;-79
2024/01/10 03:53:22;;;;;;;31.73;22.50;;;-2.60;73.70;;;;;;5104403;28;20405;-79
2024/01/10 03:55:48;;;;;;;30.83;21.63;;;-2.50;74.20;;;;;;5090352;28;20402;-80
2024/01/10 03:58:13;;;;;;;28.90;20.92;;;-2.50;74.30;;;;;;5104954;28;20407;-78
2024/01/10 04:00:39;;;;;;;28.30;21.27;;;-2.50;74.10;;;;;;5085528;28;20410;-78
2024/01/10 04:03:05;;;;;;;28.20;20.77;;;-2.50;74.30;;;;;;5104753;28;20411;-79
2024/01/10 04:05:31;;;;;;;28.90;21.20;;;-2.50;73.90;;;;;;5090735;28;20430;-79
2024/01/10 04:07:56;;;;;;;29.70;21.58;;;-2.50;74.00;;;;;;5087503;28;20467;-79
2024/01/10 04:10:22;;;;;;;30.42;21.67;;;-2.50;74.10;;;;;;5101385;28;20406;-79
2024/01/10 04:12:48;;;;;;;31.27;21.90;;;-2.50;74.60;;;;;;5105723;28;20442;-79
2024/01/10 04:15:14;;;;;;;29.70;22.33;;;-2.50;74.50;;;;;;5101204;28;20414;-79
2024/01/10 04:17:40;;;;;;;29.90;21.42;;;-2.50;74.00;;;;;;5104859;28;20403;-79
2024/01/10 04:20:07;;;;;;;31.52;22.38;;;-2.50;74.10;;;;;;5100123;28;20409;-79
2024/01/10 04:22:32;;;;;;;30.13;22.30;;;-2.50;74.50;;;;;;5077415;28;20445;-79
2024/01/10 04:24:59;;;;;;;31.70;22.57;;;-2.50;74.50;;;;;;5087934;28;20481;-78
2024/01/10 04:27:25;;;;;;;30.50;22.27;;;-2.50;74.30;;;;;;5107170;28;20439;-79
2024/01/10 04:29:50;;;;;;;31.23;22.80;;;-2.50;74.00;;;;;;5086486;28;20907;-78
2024/01/10 04:32:16;;;;;;;28.38;21.65;;;-2.60;73.80;;;;;;5106396;28;20435;-79
2024/01/10 04:34:42;;;;;;;29.20;21.13;;;-2.60;73.70;;;;;;5103838;28;20771;-78
2024/01/10 04:37:08;;;;;;;30.43;22.33;;;-2.60;73.60;;;;;;5106964;28;20461;-78
2024/01/10 04:39:37;;;;;;;31.93;23.27;;;-2.60;74.20;;;;;;5103662;28;20406;-78
2024/01/10 04:42:05;;;;;;;32.33;23.75;;;-2.60;74.70;;;;;;5070025;28;20407;-79
2024/01/10 04:44:30;;;;;;;31.80;23.67;;;-2.60;74.60;;;;;;5086106;28;20884;-78
2024/01/10 04:46:56;;;;;;;34.75;24.38;;;-2.60;74.50;;;;;;5106661;28;20427;-78
2024/01/10 04:49:22;;;;;;;35.05;25.55;;;-2.60;74.10;;;;;;5102678;28;20494;-78
2024/01/10 04:51:49;;;;;;;36.92;26.20;;;-2.60;75.10;;;;;;5081995;28;20393;-78
2024/01/10 04:54:15;;;;;;;34.92;25.92;;;-2.60;75.70;;;;;;5100015;28;20848;-78
2024/01/10 04:56:40;;;;;;;35.67;26.83;;;-2.60;75.90;;;;;;5105721;28;20487;-78
2024/01/10 04:59:06;;;;;;;36.88;26.90;;;-2.70;75.90;;;;;;5100522;28;20415;-78
2024/01/10 05:01:32;;;;;;;37.40;27.57;;;-2.60;75.70;;;;;;5088888;28;20409;-78
2024/01/10 05:03:58;;;;;;;38.63;27.93;;;-2.70;77.10;;;;;;5097831;28;20756;-78
2024/01/10 05:06:23;;;;;;;37.20;27.73;;;-2.70;77.00;;;;;;5096719;28;20415;-78
2024/01/10 05:08:49;;;;;;;36.95;27.30;;;-2.70;76.80;;;;;;5104629;28;20433;-77
2024/01/10 05:11:15;;;;;;;36.80;27.98;;;-2.70;77.20;;;;;;5107317;28;20396;-78
2024/01/10 05:13:42;;;;;;;37.80;27.70;;;-2.70;77.40;;;;;;5106298;28;21301;-77
2024/01/10 05:16:07;;;;;;;37.15;27.35;;;-2.70;77.30;;;;;;5108860;27;20944;-78
2024/01/10 05:18:33;;;;;;;36.57;26.50;;;-2.70;77.50;;;;;;5106377;28;20430;-77
2024/01/10 05:21:00;;;;;;;34.70;26.23;;;-2.70;77.30;;;;;;5107079;28;20479;-78
2024/01/10 05:23:26;;;;;;;35.72;26.30;;;-2.70;77.10;;;;;;5092524;28;20783;-77
2024/01/10 05:25:51;;;;;;;36.17;25.77;;;-2.70;76.70;;;;;;5106351;28;20407;-77
2024/01/10 05:28:17;;;;;;;36.25;26.17;;;-2.70;76.90;;;;;;5104084;28;20838;-77
2024/01/10 05:30:43;;;;;;;34.10;25.08;;;-2.70;76.60;;;;;;5106849;28;20412;-77
2024/01/10 05:33:10;;;;;;;33.88;24.95;;;-2.70;76.70;;;;;;5105287;27;20918;-77
2024/01/10 05:35:38;;;;;;;33.92;25.02;;;-2.70;76.10;;;;;;5088517;28;20411;-77
2024/01/10 05:38:04;;;;;;;34.08;25.15;;;-2.70;76.20;;;;;;5105039;28;20401;-77
2024/01/10 05:40:32;;;;;;;33.90;24.63;;;-2.70;76.40;;;;;;5106392;28;20409;-77
2024/01/10 05:43:01;;;;;;;33.22;24.38;;;-2.70;76.20;;;;;;5084926;28;20924;-77
2024/01/10 05:45:27;;;;;;;31.67;24.27;;;-2.70;76.20;;;;;;5107493;28;20409;-77
2024/01/10 05:47:54;;;;;;;32.83;24.05;;;-2.60;75.90;;;;;;5103158;28;20804;-77
2024/01/10 05:50:20;;;;;;;31.67;23.05;;;-2.60;75.60;;;;;;5096668;28;20481;-77
2024/01/10 05:52:46;;;;;;;31.75;23.70;;;-2.60;75.20;;;;;;5101376;28;20979;-77
2024/01/10 05:55:12;;;;;;;30.98;22.92;;;-2.70;75.10;;;;;;5107999;28;20438;-76
2024/01/10 05:57:38;;;;;;;31.67;23.27;;;-2.70;74.90;;;;;;5104123;27;20807;-77
2024/01/10 06:00:09;;;;;;;30.97;22.47;;;-2.70;74.60;;;;;;5088873;28;20425;-76
2024/01/10 06:02:44;;;;;;;31.48;22.90;;;-2.70;74.10;;;;;;5085910;28;20408;-77
2024/01/10 06:05:10;;;;;;;29.48;21.30;;;-2.70;73.50;;;;;;5095092;28;20438;-76
2024/01/10 06:07:43;;;;;;;28.23;21.00;;;-2.70;72.80;;;;;;5103787;28;20511;-77
2024/01/10 06:10:09;;;;;;;28.77;20.42;;;-2.70;71.90;;;;;;5106848;28;20403;-77
2024/01/10 06:12:35;;;;;;;28.65;20.95;;;-2.70;71.00;;;;;;5087498;28;20463;-77
2024/01/10 06:15:01;;;;;;;28.07;20.77;;;-2.70;70.20;;;;;;5106876;28;20918;-77
2024/01/10 06:17:26;;;;;;;28.63;21.53;;;-2.70;70.00;;;;;;5104031;28;20515;-76
2024/01/10 06:19:52;;;;;;;28.27;21.25;;;-2.70;69.80;;;;;;5095035;28;20787;-77
2024/01/10 06:22:18;;;;;;;32.20;22.60;;;-2.70;69.70;;;;;;5104299;28;20404;-76
2024/01/10 06:24:44;;;;;;;31.80;22.73;;;-2.70;69.20;;;;;;5106546;28;20403;-76
2024/01/10 06:27:10;;;;;;;32.13;22.63;;;-2.70;69.50;;;;;;5105185;28;20416;-75
2024/01/10 06:29:36;;;;;;;33.67;23.65;;;-2.80;68.80;;;;;;5105566;28;20480;-75
2024/01/10 06:32:03;;;;;;;33.13;23.17;;;-2.80;68.40;;;;;;5104292;28;20400;-75
2024/01/10 06:34:29;;;;;;;33.00;22.88;;;-2.80;68.40;;;;;;5104003;28;20415;-74
2024/01/10 06:36:55;;;;;;;34.53;24.48;;;-2.80;68.00;;;;;;5094478;28;20516;-75
2024/01/10 06:39:20;;;;;;;32.78;23.17;;;-2.80;68.40;;;;;;5082528;28;20512;-75
2024/01/10 06:41:47;;;;;;;33.60;23.10;;;-2.90;68.60;;;;;;5103096;28;20925;-75
2024/01/10 06:44:13;;;;;;;31.92;22.02;;;-2.90;69.30;;;;;;5093467;28;20515;-75
2024/01/10 06:46:38;;;;;;;34.45;23.75;;;-2.90;68.40;;;;;;5094181;28;20503;-75
2024/01/10 06:49:04;;;;;;;33.53;22.63;;;-2.90;68.20;;;;;;5105451;28;20403;-75
2024/01/10 06:51:32;;;;;;;33.13;22.67;;;-2.90;67.90;;;;;;5099790;27;20939;-76
2024/01/10 06:54:03;;;;;;;35.15;23.13;;;-2.90;68.00;;;;;;5098260;28;20918;-76
2024/01/10 06:56:29;;;;;;;34.33;22.93;;;-2.90;68.30;;;;;;5105080;28;20798;-76
2024/01/10 06:58:55;;;;;;;36.38;23.92;;;-2.90;68.00;;;;;;5102423;28;20451;-75
2024/01/10 07:01:21;;;;;;;36.85;24.20;;;-3.00;68.10;;;;;;5105271;28;20424;-75
2024/01/10 07:03:48;;;;;;;38.67;23.63;;;-3.00;68.10;;;;;;5104361;28;20408;-76
2024/01/10 07:06:16;;;;;;;39.38;24.77;;;-3.00;68.10;;;;;;5094706;28;20444;-76
2024/01/10 07:08:44;;;;;;;40.47;25.23;;;-3.10;68.40;;;;;;5103870;28;20421;-75
2024/01/10 07:11:11;;;;;;;39.50;25.13;;;-3.00;69.40;;;;;;5104767;28;20404;-75
2024/01/10 07:13:37;;;;;;;36.80;22.75;;;-3.10;69.40;;;;;;5104333;28;20898;-75
2024/01/10 07:16:03;;;;;;;37.95;24.05;;;-3.10;69.10;;;;;;5106860;28;20857;-75
2024/01/10 07:18:29;;;;;;;39.50;24.02;;;-3.20;69.00;;;;;;5111405;28;20400;-75
2024/01/10 07:20:55;;;;;;;41.53;24.50;;;-3.20;69.20;;;;;;5109208;28;20491;-75
2024/01/10 07:23:21;;;;;;;41.90;24.23;;;-3.20;69.30;;;;;;5104510;28;20621;-75
2024/01/10 07:25:46;;;;;;;40.73;23.33;;;-3.20;69.40;;;;;;5106558;28;20404;-76
2024/01/10 07:28:12;;;;;;;42.67;23.77;;;-3.20;69.40;;;;;;5103565;28;20583;-75
2024/01/10 07:30:37;;;;;;;41.92;23.75;;;-3.20;69.50;;;;;;5106122;28;20397;-75
2024/01/10 07:33:03;;;;;;;45.87;24.13;;;-3.20;69.90;;;;;;5102304;28;20605;-75
2024/01/10 07:35:30;;;;;;;41.83;22.67;;;-3.20;69.80;;;;;;5069098;28;20513;-75
2024/01/10 07:37:55;;;;;;;43.97;22.90;;;-3.30;69.90;;;;;;5081028;28;20468;-75
2024/01/10 07:40:22;;;;;;;43.57;22.90;;;-3.30;69.90;;;;;;5106270;28;20404;-75
2024/01/10 07:42:48;;;;;;;45.03;23.48;;;-3.30;70.50;;;;;;5102191;28;20396;-75
2024/01/10 07:45:14;;;;;;;41.83;22.00;;;-3.30;71.30;;;;;;5106377;28;20693;-75
2024/01/10 07:47:39;;;;;;;42.45;22.90;;;-3.30;71.00;;;;;;5102866;28;20512;-75
2024/01/10 07:50:06;;;;;;;43.97;22.15;;;-3.40;71.20;;;;;;5106075;28;20396;-75
2024/01/10 07:52:32;;;;;;;46.20;21.92;;;-3.40;71.60;;;;;;5102618;28;20411;-75
2024/01/10 07:54:58;;;;;;;41.17;21.13;;;-3.40;72.00;;;;;;5106095;28;20396;-75
2024/01/10 07:57:23;;;;;;;41.38;20.35;;;-3.30;72.10;;;;;;5092286;28;20432;-75
2024/01/10 07:59:49;;;;;;;39.63;21.37;;;-3.40;71.60;;;;;;5109988;28;20416;-74
2024/01/10 08:02:15;;;;;;;36.23;20.37;;;-3.30;71.70;;;;;;5107020;28;20396;-75
2024/01/10 08:04:40;;;;;;;39.38;20.40;;;-3.30;71.60;;;;;;5091499;28;20485;-74
2024/01/10 08:07:06;;;;;;;39.42;20.67;;;-3.30;71.60;;;;;;5103545;28;20465;-75
2024/01/10 08:09:32;;;;;;;36.80;19.75;;;-3.30;72.00;;;;;;5110006;28;20396;-74
2024/01/10 08:11:58;;;;;;;39.73;20.00;;;-3.30;72.30;;;;;;5107030;28;20404;-75
2024/01/10 08:14:24;;;;;;;37.95;19.73;;;-3.30;72.90;;;;;;5109442;28;20400;-74
2024/01/10 08:16:53;;;;;;;36.07;19.37;;;-3.30;72.80;;;;;;5105558;28;20715;-74
2024/01/10 08:19:18;;;;;;;37.97;20.13;;;-3.30;73.00;;;;;;5107828;28;20503;-74
2024/01/10 08:21:44;;;;;;;40.57;19.60;;;-3.30;72.60;;;;;;5105874;28;21058;-74
2024/01/10 08:24:10;;;;;;;39.20;19.67;;;-3.30;72.60;;;;;;5107444;28;20762;-74
2024/01/10 08:26:35;;;;;;;35.08;18.15;;;-3.30;71.50;;;;;;5105378;28;20423;-74
2024/01/10 08:29:01;;;;;;;33.10;18.48;;;-3.30;71.40;;;;;;5085266;28;20467;-75
2024/01/10 08:31:26;;;;;;;36.17;18.47;;;-3.30;71.00;;;;;;5105941;28;20430;-74
2024/01/10 08:33:53;;;;;;;36.67;19.40;;;-3.30;71.00;;;;;;5097856;28;20437;-75
2024/01/10 08:36:18;;;;;;;39.20;19.75;;;-3.30;70.70;;;;;;5105751;28;20400;-74
2024/01/10 08:38:44;;;;;;;34.60;18.93;;;-3.30;70.70;;;;;;5078443;28;21013;-74
2024/01/10 08:41:11;;;;;;;38.15;19.08;;;-3.30;71.10;;;;;;5099934;28;20429;-75
2024/01/10 08:43:41;;;;;;;36.25;18.73;;;-3.30;70.80;;;;;;5086877;28;20456;-74
2024/01/10 08:46:08;;;;;;;33.90;18.48;;;-3.30;70.70;;;;;;5104790;28;20467;-75
2024/01/10 08:48:34;;;;;;;35.57;18.97;;;-3.20;70.40;;;;;;5107937;28;20507;-74
2024/01/10 08:51:00;;;;;;;34.87;18.23;;;-3.30;70.20;;;;;;5104611;28;20833;-74
2024/01/10 08:53:25;;;;;;;37.83;18.60;;;-3.20;70.40;;;;;;5106873;28;20401;-74
2024/01/10 08:55:51;;;;;;;35.77;18.20;;;-3.20;70.10;;;;;;5104077;28;20485;-74
2024/01/10 08:58:16;;;;;;;34.50;18.50;;;-3.20;70.20;;;;;;5107899;28;20392;-74
2024/01/10 09:00:42;;;;;;;35.97;18.83;;;-3.20;70.30;;;;;;5104842;28;20406;-74
2024/01/10 09:03:08;;;;;;;35.23;18.17;;;-3.10;70.50;;;;;;5089531;28;20432;-74
2024/01/10 09:05:34;;;;;;;33.65;18.02;;;-3.10;70.40;;;;;;5094387;28;20406;-74
2024/01/10 09:08:00;;;;;;;34.13;18.27;;;-3.10;70.20;;;;;;5107105;28;20432;-73
2024/01/10 09:10:27;;;;;;;32.07;17.13;;;-3.10;70.00;;;;;;5105090;28;20453;-73
2024/01/10 09:12:53;;;;;;;30.85;16.92;;;-3.10;69.50;;;;;;5107289;28;20409;-73
2024/01/10 09:15:19;;;;;;;34.17;17.77;;;-3.00;68.90;;;;;;5105542;28;20409;-72
2024/01/10 09:17:45;;;;;;;31.65;17.15;;;-3.00;67.60;;;;;;5098738;28;20399;-72
2024/01/10 09:20:12;;;;;;;31.95;17.42;;;-3.00;66.80;;;;;;5100618;28;20398;-73
2024/01/10 09:22:38;;;;;;;33.38;17.13;;;-3.00;66.30;;;;;;5097095;28;20418;-72
2024/01/10 09:25:05;;;;;;;29.90;16.98;;;-2.90;66.50;;;;;;5103987;28;20390;-73
2024/01/10 09:27:34;;;;;;;30.87;16.80;;;-2.90;65.80;;;;;;5097710;28;20820;-73
2024/01/10 09:30:01;;;;;;;30.40;16.85;;;-2.90;64.30;;;;;;5103588;28;20905;-72
2024/01/10 09:32:29;;;;;;;28.58;15.25;;;-2.90;62.80;;;;;;5107318;28;20890;-73
2024/01/10 09:34:55;;;;;;;27.65;15.45;;;-2.90;61.30;;;;;;5103106;28;20402;-73
2024/01/10 09:37:21;;;;;;;28.30;16.27;;;-2.80;60.70;;;;;;5089053;28;20778;-73
2024/01/10 09:39:46;;;;;;;28.13;16.30;;;-2.80;60.50;;;;;;5104048;28;20396;-72
2024/01/10 09:42:14;;;;;;;27.33;15.73;;;-2.80;60.50;;;;;;5107887;28;20396;-72
2024/01/10 09:44:40;;;;;;;26.87;15.13;;;-2.70;58.80;;;;;;5104225;28;20723;-73
2024/01/10 09:47:07;;;;;;;25.80;14.40;;;-2.70;58.30;;;;;;5106868;28;20412;-73
2024/01/10 09:49:33;;;;;;;28.33;15.52;;;-2.60;57.80;;;;;;5103977;28;20412;-73
2024/01/10 09:52:03;;;;;;;28.00;15.32;;;-2.60;57.80;;;;;;5107009;28;20400;-73
2024/01/10 09:54:30;;;;;;;25.88;14.65;;;-2.50;57.00;;;;;;5091484;28;20830;-73
2024/01/10 09:56:57;;;;;;;24.55;13.85;;;-2.50;55.40;;;;;;5106632;28;20789;-73
2024/01/10 09:59:23;;;;;;;23.90;13.13;;;-2.40;53.90;;;;;;5102999;28;20906;-72
2024/01/10 10:01:51;;;;;;;25.38;13.93;;;-2.40;52.60;;;;;;5105775;28;20389;-72
2024/01/10 10:04:19;;;;;;;25.52;14.32;;;-2.40;51.60;;;;;;5100381;28;20788;-72
2024/01/10 10:06:45;;;;;;;25.88;13.93;;;-2.30;49.10;;;;;;5099883;28;20446;-72
2024/01/10 10:09:12;;;;;;;25.23;14.00;;;-2.30;47.70;;;;;;5105159;28;20518;-72
2024/01/10 10:11:37;;;;;;;22.75;13.02;;;-2.20;47.80;;;;;;5107011;28;20487;-72
2024/01/10 10:14:17;;;;;;;23.90;14.18;;;-2.20;45.10;;;;;;5102859;28;20483;-74
2024/01/10 10:16:43;;;;;;;22.70;13.23;;;-2.20;43.80;;;;;;5105147;28;20901;-74
2024/01/10 10:19:11;;;;;;;21.60;12.98;;;-2.10;41.90;;;;;;5093716;28;20407;-74
2024/01/10 10:21:37;;;;;;;22.05;12.80;;;-2.10;39.50;;;;;;5085386;28;20411;-73
2024/01/10 10:24:04;;;;;;;20.63;12.18;;;-2.10;34.80;;;;;;5088709;28;20402;-73
2024/01/10 10:26:33;;;;;;;20.67;11.90;;;-2.10;30.80;;;;;;5099181;28;20755;-74
2024/01/10 10:28:59;;;;;;;21.20;12.27;;;-2.00;32.30;;;;;;5105061;28;20438;-74
2024/01/10 10:31:25;;;;;;;21.88;12.68;;;-2.00;32.80;;;;;;5102692;28;21567;-74
2024/01/10 10:33:52;;;;;;;23.40;12.90;;;-1.90;30.30;;;;;;5105554;28;20407;-74
2024/01/10 10:36:19;;;;;;;22.65;12.93;;;-1.90;30.50;;;;;;5102359;28;20918;-74
2024/01/10 10:38:47;;;;;;;22.00;12.75;;;-1.90;29.00;;;;;;5105060;28;20847;-73
2024/01/10 10:41:14;;;;;;;21.67;12.27;;;-1.90;28.40;;;;;;5102215;28;20437;-74
2024/01/10 10:43:40;;;;;;;20.70;12.65;;;-1.90;28.30;;;;;;5098107;28;20475;-73
2024/01/10 10:46:09;;;;;;;20.65;12.32;;;-1.80;27.90;;;;;;5099557;28;20405;-73
2024/01/10 10:48:36;;;;;;;22.60;12.73;;;-1.80;22.90;;;;;;5096720;28;20420;-73
2024/01/10 10:51:18;;;;;;;21.05;12.48;;;-1.80;23.60;;;;;;5102800;28;20568;-73
2024/01/10 10:53:47;;;;;;;21.57;12.90;;;-1.70;29.10;;;;;;5106257;28;20426;-73
2024/01/10 10:56:13;;;;;;;21.75;12.23;;;-1.20;33.70;;;;;;5098986;28;20408;-73
2024/01/10 10:58:44;;;;;;;20.90;13.10;;;-0.70;29.20;;;;;;5098906;28;20412;-73
2024/01/10 11:01:11;;;;;;;21.00;12.30;;;-0.50;5.80;;;;;;5102484;28;20462;-73
2024/01/10 11:03:44;;;;;;;20.52;12.77;;;-0.40;14.30;;;;;;5103999;28;20432;-74
2024/01/10 11:06:10;;;;;;;23.47;13.23;;;-0.20;12.70;;;;;;5086286;28;20409;-74
2024/01/10 11:08:43;;;;;;;20.70;12.77;;;0.10;11.60;;;;;;5089255;28;20786;-74
2024/01/10 11:11:27;;;;;;;21.25;13.15;;;0.40;1.00;;;;;;5088585;28;20914;-73
2024/01/10 11:14:34;;;;;;;21.35;12.52;;;0.70;1.00;;;;;;5070523;28;20410;-73
2024/01/10 11:17:09;;;;;;;20.92;12.52;;;1.10;1.00;;;;;;5061216;28;20505;-74
2024/01/10 11:20:12;;;;;;;20.07;12.33;;;1.40;1.00;;;;;;5087910;28;21071;-73
2024/01/10 11:22:52;;;;;;;18.05;11.63;;;1.60;1.00;;;;;;5079194;28;20410;-73
2024/01/10 11:25:19;;;;;;;19.20;12.20;;;2.10;1.00;;;;;;5088222;28;21182;-71
2024/01/10 11:27:47;;;;;;;19.27;12.00;;;2.50;1.00;;;;;;5087893;28;20426;-71
2024/01/10 11:30:13;;;;;;;17.95;12.02;;;3.00;1.00;;;;;;5086834;28;20609;-71
2024/01/10 11:32:38;;;;;;;18.30;11.75;;;3.10;1.00;;;;;;5086553;28;20896;-71
2024/01/10 11:35:20;;;;;;;18.37;11.57;;;3.30;1.00;;;;;;5103311;28;20493;-71
2024/01/10 11:37:49;;;;;;;18.40;11.35;;;3.40;1.00;;;;;;5088697;28;20405;-71
2024/01/10 11:40:15;;;;;;;18.98;11.95;;;3.20;1.00;;;;;;5088006;28;20390;-74
2024/01/10 11:42:48;;;;;;;20.23;12.20;;;2.70;1.00;;;;;;5087753;28;21288;-75
2024/01/10 11:45:35;;;;;;;19.45;12.10;;;2.40;1.00;;;;;;5087890;28;20438;-72
2024/01/10 11:48:00;;;;;;;19.60;11.98;;;1.80;1.00;;;;;;5088357;28;20432;-72
2024/01/10 11:50:27;;;;;;;21.23;12.52;;;1.20;1.00;;;;;;5087505;28;20435;-72
2024/01/10 11:52:55;;;;;;;20.90;12.50;;;0.80;1.00;;;;;;5087744;28;20446;-72
2024/01/10 11:55:46;;;;;;;21.02;12.02;;;0.50;1.00;;;;;;5086593;28;20424;-72
2024/01/10 11:58:12;;;;;;;21.13;12.60;;;0.30;1.00;;;;;;5085651;28;20439;-72
2024/01/10 12:00:39;;;;;;;20.65;12.38;;;0.20;1.00;;;;;;5105050;28;20450;-72
2024/01/10 12:03:06;;;;;;;20.77;12.23;;;0.10;1.00;;;;;;5105438;28;20443;-72
2024/01/10 12:05:32;;;;;;;21.73;12.70;;;0.00;1.00;;;;;;5090994;28;20464;-73
2024/01/10 12:07:59;;;;;;;21.52;12.88;;;0.00;1.00;;;;;;5104770;28;20431;-72
2024/01/10 12:10:26;;;;;;;20.83;12.45;;;0.00;1.00;;;;;;5085140;28;20902;-72
2024/01/10 12:12:54;;;;;;;20.77;12.15;;;0.10;1.00;;;;;;5105912;28;20434;-72
2024/01/10 12:15:20;;;;;;;21.80;13.17;;;0.00;1.00;;;;;;5103952;28;20476;-72
2024/01/10 12:17:46;;;;;;;21.40;12.23;;;0.10;1.00;;;;;;5106148;28;20507;-73
2024/01/10 12:20:12;;;;;;;21.13;11.83;;;0.10;1.00;;;;;;5103236;28;20547;-73
2024/01/10 12:22:38;;;;;;;20.23;12.47;;;0.10;1.00;;;;;;5095003;28;20478;-73
2024/01/10 12:25:07;;;;;;;21.23;12.77;;;0.20;1.00;;;;;;5104535;28;20442;-73
2024/01/10 12:27:32;;;;;;;20.42;12.23;;;0.30;1.00;;;;;;5105972;28;20416;-73